createdAt,value
2023-05-02T00:00:14.191Z,47.5
2023-05-02T00:06:19.453Z,47.5
2023-05-02T00:12:24.875Z,47.6
2023-05-02T00:18:30.311Z,47.6
2023-05-02T00:24:35.828Z,47.6
2023-05-02T00:30:42.056Z,47.6
2023-05-02T00:36:47.582Z,47.6
2023-05-02T00:42:53.369Z,47.7
2023-05-02T00:48:58.730Z,47.7
2023-05-02T00:55:04.023Z,47.7
2023-05-02T01:01:09.478Z,47.7
2023-05-02T01:07:15.109Z,47.8
2023-05-02T01:13:20.620Z,47.8
2023-05-02T01:19:26.448Z,47.8
2023-05-02T01:25:31.770Z,47.8
2023-05-02T01:31:37.212Z,47.8
2023-05-02T01:37:42.352Z,47.9
2023-05-02T01:43:47.848Z,47.9
2023-05-02T01:49:53.089Z,47.9
2023-05-02T01:55:59.282Z,47.9
2023-05-02T02:02:04.781Z,47.9
2023-05-02T02:08:09.772Z,48
2023-05-02T02:14:15.313Z,48
2023-05-02T02:20:20.686Z,48
2023-05-02T02:26:25.896Z,48
2023-05-02T02:32:31.638Z,48
2023-05-02T02:38:37.454Z,48.1
2023-05-02T02:44:43.185Z,48.1
2023-05-02T02:50:48.808Z,48.1
2023-05-02T02:56:54.330Z,48.1
2023-05-02T03:02:59.764Z,48.1
2023-05-02T03:09:05.272Z,48.2
2023-05-02T03:15:10.472Z,48.1
2023-05-02T03:21:15.574Z,48.2
2023-05-02T03:27:21.027Z,48.1
2023-05-02T03:33:26.542Z,48.1
2023-05-02T03:39:31.937Z,48.1
2023-05-02T03:45:37.876Z,48.1
2023-05-02T03:51:43.497Z,48.1
2023-05-02T03:57:48.878Z,47.9
2023-05-02T04:03:54.443Z,47.8
2023-05-02T04:10:00.598Z,47.7
2023-05-02T04:16:06.959Z,47.5
2023-05-02T04:22:12.963Z,47.3
2023-05-02T04:28:18.393Z,47.1
2023-05-02T04:34:24.101Z,47.1
2023-05-02T04:40:29.923Z,47
2023-05-02T04:46:35.697Z,46.9
2023-05-02T04:52:40.815Z,46.8
2023-05-02T04:58:46.234Z,46.9
2023-05-02T05:04:51.830Z,46.8
2023-05-02T05:10:57.598Z,46.7
2023-05-02T05:17:03.313Z,46.8
2023-05-02T05:23:09.120Z,46.7
2023-05-02T05:29:15.074Z,46.7
2023-05-02T05:35:21.531Z,46.7
2023-05-02T05:41:27.482Z,46.8
2023-05-02T05:47:33.511Z,46.9
2023-05-02T05:53:39.269Z,46.9
2023-05-02T05:59:44.812Z,47
2023-05-02T06:05:50.748Z,47
2023-05-02T06:11:56.970Z,46.9
2023-05-02T06:18:02.436Z,46.9
2023-05-02T06:24:08.324Z,46.9
2023-05-02T06:30:13.471Z,47
2023-05-02T06:36:19.085Z,46.9
2023-05-02T06:42:24.802Z,46.9
2023-05-02T06:48:30.182Z,46.9
2023-05-02T06:54:35.603Z,46.8
2023-05-02T07:00:40.719Z,46.8
2023-05-02T07:06:46.295Z,46.8
2023-05-02T07:12:52.045Z,46.9
2023-05-02T07:18:58.258Z,46.9
2023-05-02T07:25:03.905Z,46.8
2023-05-02T07:31:08.975Z,46.8
2023-05-02T07:37:14.366Z,46.8
2023-05-02T07:43:20.378Z,47
2023-05-02T07:49:25.704Z,46.9
2023-05-02T07:55:31.873Z,46.8
2023-05-02T08:01:37.468Z,46.8
2023-05-02T08:07:43.045Z,46.8
2023-05-02T08:13:48.457Z,46.7
2023-05-02T08:19:53.794Z,46.5
2023-05-02T08:25:59.748Z,46.4
2023-05-02T08:32:05.635Z,46.2
2023-05-02T08:38:11.119Z,46.2
2023-05-02T08:44:17.085Z,46.1
2023-05-02T08:50:22.877Z,46
2023-05-02T08:56:27.860Z,45.9
2023-05-02T09:02:33.648Z,46.2
2023-05-02T09:08:38.956Z,46.2
2023-05-02T09:14:45.159Z,46.1
2023-05-02T09:20:51.133Z,46.1
2023-05-02T09:26:56.502Z,46.1
2023-05-02T09:33:02.717Z,46.1
2023-05-02T09:39:07.502Z,46.2
2023-05-02T09:45:12.849Z,46.1
2023-05-02T09:51:18.639Z,46.2
2023-05-02T09:57:23.562Z,46.4
2023-05-02T10:03:28.978Z,46.4
2023-05-02T10:09:34.344Z,46.3
2023-05-02T10:15:40.087Z,46.4
2023-05-02T10:21:46.265Z,46.3
2023-05-02T10:27:52.108Z,46.2
2023-05-02T10:33:57.607Z,46.2
2023-05-02T10:40:03.172Z,46.1
2023-05-02T10:46:08.426Z,46
2023-05-02T10:52:13.502Z,45.9
2023-05-02T10:58:19.081Z,45.8
2023-05-02T11:04:24.841Z,45.8
2023-05-02T11:10:29.647Z,46.2
2023-05-02T11:16:34.679Z,46.3
2023-05-02T11:22:40.344Z,46.3
2023-05-02T11:28:46.120Z,46.3
2023-05-02T11:34:51.328Z,46.4
2023-05-02T11:40:57.082Z,46.3
2023-05-02T11:47:02.682Z,46.4
2023-05-02T11:53:07.999Z,46.4
2023-05-02T11:59:14.280Z,46.4
2023-05-02T12:05:20.191Z,46.3
2023-05-02T12:11:25.330Z,46.3
2023-05-02T12:17:31.541Z,46.3
2023-05-02T12:23:38.778Z,46.3
2023-05-02T12:29:44.510Z,46.2
2023-05-02T12:35:50.756Z,46.2
2023-05-02T12:41:56.057Z,46.1
2023-05-02T12:48:01.730Z,46
2023-05-02T12:54:07.423Z,45.9
2023-05-02T13:00:13.261Z,45.9
2023-05-02T13:06:19.003Z,45.7
2023-05-02T13:12:24.730Z,45.7
2023-05-02T13:18:30.548Z,45.8
2023-05-02T13:24:35.933Z,45.8
2023-05-02T13:30:41.943Z,45.9
2023-05-02T13:36:47.513Z,46
2023-05-02T13:42:53.020Z,46
2023-05-02T13:48:58.389Z,46
2023-05-02T13:55:04.163Z,46.1
2023-05-02T14:01:09.575Z,46
2023-05-02T14:07:15.513Z,46
2023-05-02T14:13:20.322Z,46
2023-05-02T14:19:25.699Z,46.1
2023-05-02T14:25:31.478Z,46.1
2023-05-02T14:31:36.897Z,46.2
2023-05-02T14:37:42.561Z,46.4
2023-05-02T14:43:48.590Z,46.4
2023-05-02T14:49:53.888Z,46.3
2023-05-02T14:55:59.459Z,46.3
2023-05-02T15:02:05.943Z,46.1
2023-05-02T15:08:11.710Z,46.1
2023-05-02T15:14:17.217Z,46.1
2023-05-02T15:20:23.057Z,45.9
2023-05-02T15:26:28.567Z,46
2023-05-02T15:32:33.758Z,46
2023-05-02T15:38:39.575Z,46
2023-05-02T15:44:45.303Z,46
2023-05-02T15:50:50.856Z,46.1
2023-05-02T15:56:56.635Z,46.2
2023-05-02T16:03:04.003Z,46.1
2023-05-02T16:09:09.268Z,46.1
2023-05-02T16:15:15.415Z,46.2
2023-05-02T16:21:21.205Z,46.2
2023-05-02T16:27:26.785Z,46.3
2023-05-02T16:33:32.551Z,46.3
2023-05-02T16:39:37.703Z,46.4
2023-05-02T16:45:44.063Z,46.4
2023-05-02T16:51:49.925Z,46.4
2023-05-02T16:57:55.443Z,46.5
2023-05-02T17:04:00.834Z,46.4
2023-05-02T17:10:07.219Z,46.5
2023-05-02T17:16:13.443Z,46.5
2023-05-02T17:22:19.447Z,46.6
2023-05-02T17:28:25.161Z,46.5
2023-05-02T17:34:30.932Z,46.5
2023-05-02T17:40:38.201Z,46.5
2023-05-02T17:46:44.256Z,46.6
2023-05-02T17:52:50.538Z,46.6
2023-05-02T17:58:55.928Z,46.6
2023-05-02T18:05:01.366Z,46.7
2023-05-02T18:11:07.079Z,46.6
2023-05-02T18:17:13.223Z,46.6
2023-05-02T18:23:19.077Z,46.7
2023-05-02T18:29:24.148Z,46.6
2023-05-02T18:35:29.950Z,46.6
2023-05-02T18:41:36.117Z,46.7
2023-05-02T18:47:41.731Z,46.7
2023-05-02T18:53:47.258Z,46.7
2023-05-02T18:59:53.164Z,46.7
2023-05-02T19:05:58.225Z,46.6
2023-05-02T19:12:03.435Z,46.6
2023-05-02T19:18:08.638Z,46.7
2023-05-02T19:24:14.363Z,46.6
2023-05-02T19:30:19.754Z,46.7
2023-05-02T19:36:25.250Z,46.7
2023-05-02T19:42:30.867Z,46.7
2023-05-02T19:48:36.249Z,46.8
2023-05-02T19:54:41.763Z,46.8
2023-05-02T20:00:47.604Z,46.9
2023-05-02T20:06:53.733Z,46.9
2023-05-02T20:12:59.330Z,46.9
2023-05-02T20:19:04.879Z,47
2023-05-02T20:25:10.311Z,47
2023-05-02T20:31:16.634Z,47
2023-05-02T20:37:22.834Z,47
2023-05-02T20:43:28.802Z,47.1
2023-05-02T20:49:35.249Z,47.1
2023-05-02T20:55:40.229Z,47.1
2023-05-02T21:01:46.154Z,47.1
2023-05-02T21:07:52.179Z,47.1
2023-05-02T21:13:57.615Z,47.1
2023-05-02T21:20:04.169Z,47.2
2023-05-02T21:26:10.072Z,47.2
2023-05-02T21:32:15.519Z,47.2
2023-05-02T21:38:21.222Z,47.2
2023-05-02T21:44:27.590Z,47.3
2023-05-02T21:50:33.188Z,47.3
2023-05-02T21:56:38.952Z,47.3
2023-05-02T22:02:44.833Z,47.3
2023-05-02T22:08:50.502Z,47.3
2023-05-02T22:14:56.491Z,47.3
2023-05-02T22:21:02.060Z,47.3
2023-05-02T22:27:07.920Z,47.3
2023-05-02T22:33:13.651Z,47.3
2023-05-02T22:39:19.445Z,47.3
2023-05-02T22:45:25.182Z,47.3
2023-05-02T22:51:31.015Z,47.3
2023-05-02T22:57:36.197Z,47.3
2023-05-02T23:03:42.460Z,47.3
2023-05-02T23:09:47.887Z,47.3
2023-05-02T23:15:53.950Z,47.3
2023-05-02T23:21:59.626Z,47.4
2023-05-02T23:28:05.599Z,47.3
2023-05-02T23:34:11.809Z,47.3
2023-05-02T23:40:18.233Z,47.3
2023-05-02T23:46:23.594Z,47.3
2023-05-02T23:52:28.971Z,47.3
2023-05-02T23:58:35.330Z,47.3
